Time;durP1;ratioP1;P1;durP2;ratioP2;P2;SDS_P1;SDS_P2;PMS_P1;PMS_P2;Temp;Humidity;BMP_temperature;BMP_pressure;BME280_temperature;BME280_humidity;BME280_pressure;Samples;Min_cycle;Max_cycle;Signal;HPM_P1;HPM_P2
2022/01/14 00:01:15;;;;;;;5.43;2.03;;;5.20;99.90;;;;;;5015323;28;20171;-86
2022/01/14 00:03:42;;;;;;;9.25;4.72;;;5.20;99.90;;;;;;5015482;28;20045;-87
2022/01/14 00:06:07;;;;;;;15.70;3.13;;;5.20;99.90;;;;;;5015132;28;20037;-86
2022/01/14 00:08:33;;;;;;;15.77;4.20;;;5.30;99.90;;;;;;5031325;28;20041;-85
2022/01/14 00:11:00;;;;;;;15.48;5.30;;;5.30;99.90;;;;;;5015392;28;20529;-85
2022/01/14 00:16:10;;;;;;;13.27;3.63;;;5.30;99.90;;;;;;5031210;28;20052;-86
2022/01/14 00:18:36;;;;;;;6.00;2.80;;;5.30;99.90;;;;;;5015666;28;20402;-85
2022/01/14 00:21:02;;;;;;;13.77;3.28;;;5.30;99.90;;;;;;5031500;28;20049;-85
2022/01/14 00:23:32;;;;;;;9.00;4.43;;;5.30;99.90;;;;;;5015533;28;20042;-85
2022/01/14 00:31:42;;;;;;;12.88;5.82;;;5.40;99.90;;;;;;5031619;28;20041;-85
2022/01/14 00:34:09;;;;;;;4.20;2.15;;;5.40;99.90;;;;;;5012211;28;20052;-85
2022/01/14 00:36:35;;;;;;;2.75;1.77;;;5.40;99.90;;;;;;5011555;28;20612;-83
2022/01/14 00:39:01;;;;;;;10.30;2.80;;;5.40;99.90;;;;;;5011888;28;20129;-85
2022/01/14 00:41:26;;;;;;;4.25;1.10;;;5.40;99.90;;;;;;5011771;28;20073;-85
2022/01/14 00:43:59;;;;;;;2.13;1.48;;;5.40;99.90;;;;;;5015168;28;20069;-85
2022/01/14 00:46:25;;;;;;;9.30;2.70;;;5.40;99.90;;;;;;5014595;28;20128;-85
2022/01/14 00:48:50;;;;;;;2.17;1.23;;;5.50;99.90;;;;;;5015409;28;20069;-85
2022/01/14 00:51:16;;;;;;;10.27;4.93;;;5.50;99.90;;;;;;5031535;28;20037;-85
2022/01/14 00:53:42;;;;;;;1.13;0.95;;;5.40;99.90;;;;;;5015270;28;20100;-85
2022/01/14 00:56:09;;;;;;;6.80;3.70;;;5.40;99.90;;;;;;5031105;28;20045;-86
2022/01/14 01:01:19;;;;;;;13.45;5.25;;;5.40;99.90;;;;;;5031112;28;20128;-85
2022/01/14 01:03:44;;;;;;;7.72;3.42;;;5.40;99.90;;;;;;5031283;28;20029;-85
2022/01/14 01:06:10;;;;;;;8.38;3.53;;;5.40;99.90;;;;;;5014788;28;20036;-86
2022/01/14 01:08:37;;;;;;;15.32;4.93;;;5.30;99.90;;;;;;5014889;28;20037;-85
2022/01/14 01:11:05;;;;;;;10.85;4.88;;;5.40;99.90;;;;;;5014842;28;20077;-85
2022/01/14 01:13:35;;;;;;;13.02;3.60;;;5.30;99.90;;;;;;5015204;28;20495;-85
2022/01/14 01:16:01;;;;;;;2.13;1.60;;;5.40;99.90;;;;;;5031303;28;20056;-86
2022/01/14 01:18:28;;;;;;;5.53;2.78;;;5.30;99.90;;;;;;5015476;28;20052;-85
2022/01/14 01:20:53;;;;;;;6.60;3.90;;;5.40;99.90;;;;;;5018512;28;20514;-85
2022/01/14 01:23:20;;;;;;;7.05;4.50;;;5.30;99.90;;;;;;5034939;28;20037;-85
2022/01/14 01:25:52;;;;;;;2.63;1.35;;;5.30;99.90;;;;;;5018302;28;20041;-85
2022/01/14 01:28:18;;;;;;;4.40;2.80;;;5.30;99.90;;;;;;5017995;28;20041;-85
2022/01/14 01:31:05;;;;;;;3.08;2.15;;;5.30;99.90;;;;;;5018497;28;20041;-85
2022/01/14 01:33:32;;;;;;;15.93;6.70;;;5.30;99.90;;;;;;5018288;28;20124;-85
2022/01/14 01:35:57;;;;;;;1.10;0.63;;;5.20;99.90;;;;;;5034546;28;20048;-85
2022/01/14 01:38:23;;;;;;;4.93;2.65;;;5.30;99.90;;;;;;5017490;28;20041;-85
2022/01/14 01:40:49;;;;;;;2.33;1.33;;;5.30;99.90;;;;;;5017957;28;20041;-85
2022/01/14 01:43:16;;;;;;;1.15;1.05;;;5.40;99.90;;;;;;5034535;28;20029;-85
2022/01/14 01:45:47;;;;;;;6.25;3.13;;;5.30;99.90;;;;;;5018057;28;20042;-85
2022/01/14 01:48:12;;;;;;;3.13;1.70;;;5.60;99.90;;;;;;5017537;28;20124;-85
2022/01/14 01:50:38;;;;;;;11.98;3.83;;;5.30;99.90;;;;;;5034410;28;20483;-85
2022/01/14 01:53:04;;;;;;;8.38;2.05;;;5.30;99.90;;;;;;5017822;28;20427;-85
2022/01/14 01:55:30;;;;;;;7.97;2.20;;;5.30;99.90;;;;;;5017941;28;20080;-85
2022/01/14 01:57:56;;;;;;;6.78;4.00;;;5.50;99.90;;;;;;5017358;28;20083;-85
2022/01/14 02:00:25;;;;;;;9.35;4.18;;;5.30;99.90;;;;;;5034253;28;20038;-85
2022/01/14 02:02:53;;;;;;;5.95;2.65;;;5.20;99.90;;;;;;5034038;28;20048;-85
2022/01/14 02:05:19;;;;;;;11.68;2.70;;;5.30;99.90;;;;;;5017751;28;20038;-85
2022/01/14 02:07:44;;;;;;;7.22;1.20;;;5.30;99.90;;;;;;5017317;28;20036;-85
2022/01/14 02:10:10;;;;;;;5.25;2.63;;;5.20;99.90;;;;;;5017346;28;20044;-86
2022/01/14 02:12:45;;;;;;;5.88;3.00;;;5.20;99.90;;;;;;5017603;28;20053;-87
2022/01/14 02:15:15;;;;;;;0.52;0.52;;;5.30;99.90;;;;;;5017575;28;20044;-85
2022/01/14 02:18:13;;;;;;;3.60;2.10;;;5.20;99.90;;;;;;5033521;28;20483;-86
2022/01/14 02:23:17;;;;;;;1.90;1.35;;;5.30;99.90;;;;;;5033771;28;20064;-85
2022/01/14 02:25:44;;;;;;;4.53;2.67;;;5.30;99.90;;;;;;5017146;28;20451;-85
2022/01/14 02:28:13;;;;;;;3.83;1.58;;;5.30;99.90;;;;;;5016804;28;20059;-86
2022/01/14 02:30:40;;;;;;;4.30;2.55;;;5.30;99.90;;;;;;5016503;28;20165;-86
2022/01/14 02:33:10;;;;;;;0.93;0.85;;;5.30;99.90;;;;;;5017149;28;20052;-85
2022/01/14 02:35:39;;;;;;;1.00;0.77;;;5.20;99.90;;;;;;5017080;28;20037;-85
2022/01/14 02:38:05;;;;;;;2.40;1.67;;;5.30;99.90;;;;;;5016871;28;20127;-85
2022/01/14 02:40:31;;;;;;;2.17;1.48;;;5.30;99.90;;;;;;5016728;28;20121;-85
2022/01/14 02:43:00;;;;;;;3.75;1.58;;;5.20;99.90;;;;;;5016813;28;20041;-85
2022/01/14 02:45:33;;;;;;;7.68;2.15;;;5.30;99.90;;;;;;5016924;28;20041;-85
2022/01/14 02:48:01;;;;;;;1.80;1.60;;;5.20;99.90;;;;;;5016476;28;20376;-85
2022/01/14 02:50:36;;;;;;;2.25;1.52;;;5.20;99.90;;;;;;5033333;28;20104;-85
2022/01/14 02:53:03;;;;;;;3.40;1.52;;;5.20;99.90;;;;;;5017040;28;20117;-85
2022/01/14 02:55:31;;;;;;;5.35;2.53;;;5.20;99.90;;;;;;5016750;28;20037;-85
2022/01/14 02:57:58;;;;;;;0.60;0.60;;;5.20;99.90;;;;;;5016298;28;20038;-85
2022/01/14 03:00:39;;;;;;;9.75;4.30;;;5.20;99.90;;;;;;5016596;28;20087;-85
2022/01/14 03:03:06;;;;;;;4.38;2.05;;;5.10;99.90;;;;;;5016468;28;20477;-84
2022/01/14 03:05:31;;;;;;;0.75;0.75;;;5.20;99.90;;;;;;5016422;28;20080;-86
2022/01/14 03:07:57;;;;;;;5.60;3.53;;;5.20;99.90;;;;;;5016346;28;20076;-85
2022/01/14 03:10:24;;;;;;;9.00;4.35;;;5.20;99.90;;;;;;5016286;28;20034;-85
2022/01/14 03:12:50;;;;;;;7.80;3.35;;;5.20;99.90;;;;;;5016316;28;20072;-85
2022/01/14 03:15:16;;;;;;;7.47;3.67;;;5.20;99.90;;;;;;5016351;28;20652;-85
2022/01/14 03:17:42;;;;;;;12.00;2.90;;;5.20;99.90;;;;;;5032327;28;20042;-85
2022/01/14 03:20:11;;;;;;;4.35;2.78;;;5.20;99.90;;;;;;5016262;28;20053;-85
2022/01/14 03:22:37;;;;;;;6.18;2.45;;;5.20;99.90;;;;;;5016194;28;20041;-86
2022/01/14 03:27:49;;;;;;;1.85;0.98;;;5.20;99.90;;;;;;5032134;28;20103;-85
2022/01/14 03:30:15;;;;;;;8.68;2.45;;;5.10;99.90;;;;;;5016138;28;20411;-85
2022/01/14 03:32:41;;;;;;;3.08;1.40;;;5.20;99.90;;;;;;5015900;28;20501;-85
2022/01/14 03:35:08;;;;;;;6.95;3.63;;;5.20;99.90;;;;;;5015916;28;20037;-85
2022/01/14 03:37:34;;;;;;;3.08;2.15;;;5.20;99.90;;;;;;5032019;28;20042;-86
2022/01/14 03:40:00;;;;;;;2.92;1.85;;;5.40;99.90;;;;;;5015644;28;20136;-85
2022/01/14 03:42:26;;;;;;;3.70;2.15;;;5.50;99.90;;;;;;5015063;28;20061;-85
2022/01/14 03:44:52;;;;;;;2.85;2.35;;;5.10;99.90;;;;;;5032393;28;20388;-85
2022/01/14 03:47:17;;;;;;;7.38;1.95;;;5.10;99.90;;;;;;5015244;28;20407;-85
2022/01/14 03:49:43;;;;;;;5.68;2.53;;;5.10;99.90;;;;;;5015774;28;20052;-85
2022/01/14 03:52:09;;;;;;;6.72;3.95;;;5.10;99.90;;;;;;5015659;28;20083;-85
2022/01/14 03:54:34;;;;;;;7.70;3.85;;;5.10;99.90;;;;;;5015647;28;20044;-85
2022/01/14 03:57:00;;;;;;;1.20;1.10;;;5.20;99.90;;;;;;5015346;28;20033;-85
2022/01/14 03:59:26;;;;;;;5.13;2.90;;;5.10;99.90;;;;;;5015698;28;20041;-85
2022/01/14 04:01:51;;;;;;;0.98;0.95;;;5.00;99.90;;;;;;5015444;28;20037;-85
2022/01/14 04:04:17;;;;;;;6.20;3.17;;;5.10;99.90;;;;;;5015644;28;20479;-85
2022/01/14 04:06:42;;;;;;;7.90;4.38;;;5.20;99.90;;;;;;5015347;28;20639;-85
2022/01/14 04:09:08;;;;;;;8.00;3.20;;;5.10;99.90;;;;;;5015449;28;20030;-85
2022/01/14 04:11:34;;;;;;;1.73;1.33;;;5.10;99.90;;;;;;5015489;28;20037;-85
2022/01/14 04:15:36;;;;;;;2.67;1.67;;;5.10;99.90;;;;;;5015783;28;20048;-85
2022/01/14 04:16:52;;;;;;;9.40;4.05;;;5.10;99.90;;;;;;5030830;28;20064;-85
2022/01/14 04:19:18;;;;;;;11.32;2.42;;;5.10;99.90;;;;;;5015252;28;20120;-85
2022/01/14 04:21:44;;;;;;;5.18;3.08;;;5.00;99.90;;;;;;5015270;28;20128;-85
2022/01/14 04:24:09;;;;;;;5.43;2.58;;;5.10;99.90;;;;;;5015179;28;20091;-85
2022/01/14 04:26:35;;;;;;;0.93;0.77;;;5.00;99.90;;;;;;5014981;28;20044;-85
2022/01/14 04:29:01;;;;;;;5.78;2.22;;;5.00;99.90;;;;;;5015299;28;20472;-85
2022/01/14 04:31:26;;;;;;;12.05;3.13;;;5.00;99.90;;;;;;5015122;28;20079;-85
2022/01/14 04:33:52;;;;;;;4.75;1.27;;;5.50;99.90;;;;;;5015201;28;20038;-85
2022/01/14 04:36:18;;;;;;;12.70;4.35;;;5.00;99.90;;;;;;5014734;28;20419;-85
2022/01/14 04:38:43;;;;;;;3.95;1.80;;;5.10;99.90;;;;;;5015150;28;20446;-85
2022/01/14 04:41:09;;;;;;;7.00;2.10;;;5.00;99.90;;;;;;5015086;28;20087;-84
2022/01/14 04:43:35;;;;;;;0.77;0.40;;;5.10;99.90;;;;;;5015125;28;20034;-85
2022/01/14 04:48:32;;;;;;;7.25;3.22;;;5.50;99.90;;;;;;5031271;28;20088;-85
2022/01/14 04:50:59;;;;;;;4.95;2.30;;;5.10;99.90;;;;;;5015202;28;20052;-85
2022/01/14 04:53:25;;;;;;;4.88;2.30;;;5.30;99.90;;;;;;5015669;28;20041;-85
2022/01/14 04:55:51;;;;;;;6.32;3.15;;;5.10;99.90;;;;;;5018861;28;20380;-85
2022/01/14 04:58:17;;;;;;;7.70;4.20;;;5.10;99.90;;;;;;5018420;28;20042;-85
2022/01/14 05:00:43;;;;;;;2.53;1.88;;;5.00;99.90;;;;;;5018825;28;20128;-85
2022/01/14 05:03:24;;;;;;;2.92;1.67;;;5.10;99.90;;;;;;5011036;28;20112;-86
2022/01/14 05:05:53;;;;;;;6.47;2.03;;;5.00;99.90;;;;;;4998543;28;20038;-85
2022/01/14 05:08:24;;;;;;;6.75;3.53;;;5.30;99.90;;;;;;5024207;28;20044;-85
2022/01/14 05:13:18;;;;;;;15.05;3.03;;;5.00;99.90;;;;;;5034832;28;20076;-85
2022/01/14 05:15:44;;;;;;;2.65;1.70;;;5.10;99.90;;;;;;5017816;28;20073;-85
2022/01/14 05:18:10;;;;;;;8.82;2.35;;;5.10;99.90;;;;;;5017285;28;20041;-85
2022/01/14 05:20:36;;;;;;;3.08;1.90;;;5.00;99.90;;;;;;5017810;28;20044;-85
2022/01/14 05:23:01;;;;;;;2.15;1.38;;;5.10;99.90;;;;;;5034254;28;20038;-86
2022/01/14 05:25:27;;;;;;;4.60;2.50;;;5.10;99.90;;;;;;5017366;28;20033;-86
2022/01/14 05:27:53;;;;;;;13.32;4.25;;;5.00;99.90;;;;;;5017415;28;20029;-86
2022/01/14 05:30:18;;;;;;;4.00;2.28;;;5.00;99.90;;;;;;5018002;28;20037;-86
2022/01/14 05:32:50;;;;;;;5.55;2.42;;;5.10;99.90;;;;;;5017416;28;20120;-85
2022/01/14 05:35:19;;;;;;;7.82;3.67;;;5.00;99.90;;;;;;5034074;28;20033;-86
2022/01/14 05:37:45;;;;;;;1.45;1.27;;;5.10;99.90;;;;;;5017085;28;20037;-87
2022/01/14 05:40:12;;;;;;;13.43;4.18;;;5.10;99.90;;;;;;5017588;28;20510;-85
2022/01/14 05:42:37;;;;;;;8.25;3.72;;;5.00;99.90;;;;;;5033686;28;20076;-86
2022/01/14 05:45:09;;;;;;;2.58;1.77;;;5.10;99.90;;;;;;5050286;28;20037;-85
2022/01/14 05:47:35;;;;;;;1.75;1.45;;;5.10;99.90;;;;;;5016769;28;20133;-85
2022/01/14 05:50:02;;;;;;;7.18;3.55;;;5.10;99.90;;;;;;5033730;28;20419;-85
2022/01/14 05:52:27;;;;;;;7.70;3.00;;;5.10;99.90;;;;;;5017152;28;20048;-86
2022/01/14 05:54:53;;;;;;;2.70;1.85;;;5.10;99.90;;;;;;5017526;28;20045;-85
2022/01/14 05:57:20;;;;;;;3.60;2.05;;;5.10;99.90;;;;;;5016833;28;20045;-85
2022/01/14 05:59:46;;;;;;;4.30;2.72;;;5.10;99.90;;;;;;5017033;28;20037;-86
2022/01/14 06:02:12;;;;;;;3.20;2.10;;;5.10;99.90;;;;;;5017178;28;20052;-85
2022/01/14 06:04:38;;;;;;;3.63;1.85;;;5.10;99.90;;;;;;5017076;28;20112;-85
2022/01/14 06:07:04;;;;;;;5.07;2.58;;;5.10;99.90;;;;;;5016394;28;20083;-86
2022/01/14 06:09:29;;;;;;;1.52;1.08;;;5.10;99.90;;;;;;5033428;28;20033;-85
2022/01/14 06:11:55;;;;;;;7.45;3.03;;;5.10;99.90;;;;;;5033649;28;20045;-86
2022/01/14 06:14:21;;;;;;;0.93;0.85;;;5.10;99.90;;;;;;5033367;28;20519;-85
2022/01/14 06:16:47;;;;;;;2.20;1.27;;;5.10;99.90;;;;;;5049241;28;20038;-86
2022/01/14 06:19:13;;;;;;;1.27;1.17;;;5.10;99.90;;;;;;5050441;28;20487;-86
2022/01/14 06:21:38;;;;;;;5.40;3.45;;;5.10;99.90;;;;;;5033013;28;20036;-85
2022/01/14 06:24:04;;;;;;;5.88;2.40;;;5.20;99.90;;;;;;5033134;28;20045;-86
2022/01/14 06:26:30;;;;;;;9.60;1.25;;;5.10;99.90;;;;;;5032398;28;20041;-86
2022/01/14 06:28:55;;;;;;;3.47;2.05;;;5.20;99.90;;;;;;5033061;28;20403;-85
2022/01/14 06:31:21;;;;;;;6.43;3.05;;;5.10;99.90;;;;;;5032716;28;20103;-86
2022/01/14 06:33:47;;;;;;;2.50;1.85;;;5.20;99.90;;;;;;5016597;28;20556;-85
2022/01/14 06:36:13;;;;;;;3.40;2.15;;;5.50;99.90;;;;;;5016099;28;20045;-86
2022/01/14 06:38:38;;;;;;;3.80;1.80;;;5.20;99.90;;;;;;5017134;28;20495;-86
2022/01/14 06:41:04;;;;;;;3.50;1.42;;;5.20;99.90;;;;;;5016270;28;20049;-86
2022/01/14 06:43:30;;;;;;;7.10;3.08;;;5.10;99.90;;;;;;5016631;28;20045;-86
2022/01/14 06:45:55;;;;;;;4.78;1.88;;;5.20;99.90;;;;;;5032856;28;20043;-86
2022/01/14 06:48:39;;;;;;;4.47;2.55;;;5.20;99.90;;;;;;5015649;28;20037;-86
2022/01/14 06:51:05;;;;;;;2.20;1.55;;;5.20;99.90;;;;;;5032621;28;20037;-86
2022/01/14 06:53:31;;;;;;;8.32;3.20;;;5.20;99.90;;;;;;5036996;28;20041;-86
2022/01/14 06:55:56;;;;;;;4.95;3.22;;;5.40;99.90;;;;;;5049124;28;20033;-85
2022/01/14 06:58:22;;;;;;;2.53;1.45;;;5.20;99.90;;;;;;5015461;28;20037;-86
2022/01/14 07:00:47;;;;;;;8.82;3.78;;;5.20;99.90;;;;;;5032452;28;20037;-86
2022/01/14 07:03:13;;;;;;;10.15;3.75;;;5.20;99.90;;;;;;5015956;28;20477;-86
2022/01/14 07:05:38;;;;;;;6.80;2.95;;;5.20;99.90;;;;;;5015763;28;20112;-85
2022/01/14 07:08:04;;;;;;;4.07;2.30;;;5.40;99.90;;;;;;5015332;28;20491;-86
2022/01/14 07:10:35;;;;;;;2.70;2.10;;;5.20;99.90;;;;;;4996358;28;20046;-86
2022/01/14 07:13:01;;;;;;;18.45;3.38;;;5.30;99.90;;;;;;4996100;28;20037;-86
2022/01/14 07:15:26;;;;;;;3.33;2.00;;;5.20;99.90;;;;;;5006327;28;20079;-86
2022/01/14 07:17:52;;;;;;;1.15;1.05;;;5.20;99.90;;;;;;5031403;28;20063;-85
2022/01/14 07:20:18;;;;;;;2.97;2.22;;;5.20;99.90;;;;;;5015702;28;20037;-86
2022/01/14 07:22:48;;;;;;;9.18;2.95;;;5.30;99.90;;;;;;5032010;28;20038;-86
2022/01/14 07:25:14;;;;;;;1.38;1.10;;;5.30;99.90;;;;;;5015501;28;20033;-86
2022/01/14 07:27:40;;;;;;;1.48;1.38;;;5.30;99.90;;;;;;5014941;28;20547;-86
2022/01/14 07:30:07;;;;;;;2.05;1.23;;;5.30;99.90;;;;;;5031991;28;20418;-86
2022/01/14 07:32:33;;;;;;;2.70;1.83;;;5.30;99.90;;;;;;5031755;28;20159;-85
2022/01/14 07:34:58;;;;;;;3.53;2.42;;;5.30;99.90;;;;;;5015442;28;20508;-86
2022/01/14 07:37:24;;;;;;;22.77;2.17;;;5.30;99.90;;;;;;5015269;28;20037;-86
2022/01/14 07:39:50;;;;;;;5.25;3.47;;;5.30;99.90;;;;;;5014983;28;20081;-85
2022/01/14 07:42:17;;;;;;;1.20;0.60;;;5.20;99.90;;;;;;5028366;28;20040;-85
2022/01/14 07:44:47;;;;;;;2.20;1.75;;;5.30;99.90;;;;;;5030296;28;20052;-85
2022/01/14 07:47:12;;;;;;;2.53;1.67;;;5.30;99.90;;;;;;5014942;28;20490;-85
2022/01/14 07:49:38;;;;;;;2.50;1.45;;;5.30;99.90;;;;;;5014810;28;20045;-86
2022/01/14 07:52:04;;;;;;;1.65;1.50;;;5.30;99.90;;;;;;5015219;28;20030;-85
2022/01/14 07:54:30;;;;;;;2.20;1.90;;;5.30;99.90;;;;;;5015020;28;20037;-86
2022/01/14 07:57:08;;;;;;;0.73;0.68;;;5.30;99.90;;;;;;5010298;28;20092;-85
2022/01/14 07:59:35;;;;;;;7.63;2.78;;;5.30;99.90;;;;;;4995231;28;20116;-85
2022/01/14 08:02:01;;;;;;;2.60;1.52;;;5.30;99.90;;;;;;4995068;28;20518;-86
2022/01/14 08:04:27;;;;;;;0.38;0.38;;;5.30;99.90;;;;;;5018957;28;20040;-85
2022/01/14 08:06:57;;;;;;;3.33;2.35;;;5.30;99.90;;;;;;5031048;28;20021;-85
2022/01/14 08:09:23;;;;;;;2.00;1.48;;;5.30;99.90;;;;;;5014523;28;20391;-86
2022/01/14 08:11:49;;;;;;;5.97;3.45;;;5.30;99.90;;;;;;5031095;28;20043;-85
2022/01/14 08:14:15;;;;;;;0.98;0.70;;;5.30;99.90;;;;;;5014652;28;20048;-86
2022/01/14 08:16:41;;;;;;;2.35;1.98;;;5.50;99.90;;;;;;5030462;28;20403;-86
2022/01/14 08:19:06;;;;;;;3.95;2.60;;;5.40;99.90;;;;;;5015476;28;20048;-86
2022/01/14 08:21:32;;;;;;;18.67;3.20;;;5.40;99.90;;;;;;5030680;28;20804;-86
2022/01/14 08:23:58;;;;;;;1.38;1.15;;;5.40;99.90;;;;;;5014920;28;20037;-86
2022/01/14 08:26:24;;;;;;;13.02;5.72;;;5.40;99.90;;;;;;5013999;28;20034;-86
2022/01/14 08:28:50;;;;;;;5.63;2.72;;;5.50;99.90;;;;;;5034126;28;20419;-84
2022/01/14 08:31:19;;;;;;;0.80;0.75;;;5.50;99.90;;;;;;5054061;28;20048;-86
2022/01/14 08:33:46;;;;;;;2.83;1.90;;;5.50;99.90;;;;;;5037271;28;20052;-85
2022/01/14 08:36:12;;;;;;;4.32;3.20;;;5.50;99.90;;;;;;5032025;28;20053;-86
2022/01/14 08:38:38;;;;;;;2.40;1.13;;;5.50;99.90;;;;;;5031107;28;20038;-86
2022/01/14 08:41:04;;;;;;;4.07;2.00;;;5.50;99.90;;;;;;5020919;28;20491;-85
2022/01/14 08:43:29;;;;;;;1.05;0.95;;;5.50;99.90;;;;;;5020916;28;20042;-85
2022/01/14 08:45:58;;;;;;;4.50;2.67;;;5.60;99.90;;;;;;5020850;28;20077;-87
2022/01/14 08:48:24;;;;;;;2.88;2.03;;;5.50;99.90;;;;;;5020272;28;20045;-86
2022/01/14 08:50:50;;;;;;;4.38;2.10;;;5.60;99.90;;;;;;5036411;28;20076;-86
2022/01/14 08:53:15;;;;;;;4.63;2.05;;;5.60;99.90;;;;;;5031761;28;20084;-86
2022/01/14 08:55:41;;;;;;;5.78;1.85;;;5.70;99.90;;;;;;5020979;28;20044;-86
2022/01/14 08:58:10;;;;;;;2.65;1.60;;;5.60;99.90;;;;;;5014081;28;20049;-86
2022/01/14 09:00:36;;;;;;;2.08;1.92;;;5.60;99.90;;;;;;5020917;28;20052;-85
2022/01/14 09:03:06;;;;;;;3.78;0.80;;;5.60;99.90;;;;;;5015991;28;20045;-86
2022/01/14 09:05:31;;;;;;;0.60;0.60;;;5.90;99.90;;;;;;5017668;28;20117;-86
2022/01/14 09:07:58;;;;;;;10.73;1.73;;;5.70;99.90;;;;;;5017741;28;20076;-87
2022/01/14 09:10:24;;;;;;;3.35;1.35;;;5.70;99.90;;;;;;5017462;28;20042;-85
2022/01/14 09:12:50;;;;;;;4.40;2.15;;;5.80;99.90;;;;;;5012282;28;20528;-85
2022/01/14 09:15:16;;;;;;;6.57;2.17;;;5.80;99.90;;;;;;5020244;28;20037;-86
2022/01/14 09:17:42;;;;;;;2.63;1.95;;;5.80;99.90;;;;;;5013709;28;20084;-86
2022/01/14 09:20:09;;;;;;;3.13;1.48;;;5.80;99.90;;;;;;5019526;28;20073;-86
2022/01/14 09:22:35;;;;;;;0.57;0.47;;;5.90;99.90;;;;;;5020534;28;20043;-85
2022/01/14 09:25:07;;;;;;;1.35;1.15;;;5.90;99.90;;;;;;5037066;28;20079;-85
2022/01/14 09:27:33;;;;;;;1.83;1.65;;;5.80;99.90;;;;;;5019938;28;20033;-86
2022/01/14 09:30:00;;;;;;;3.63;2.20;;;5.90;99.90;;;;;;5020296;28;20037;-86
2022/01/14 09:32:26;;;;;;;0.50;0.50;;;5.90;99.90;;;;;;5037123;28;20045;-86
2022/01/14 09:34:54;;;;;;;1.13;1.02;;;6.00;99.90;;;;;;5020300;28;20564;-86
2022/01/14 09:37:19;;;;;;;5.57;3.25;;;6.00;99.90;;;;;;5020275;28;20048;-86
2022/01/14 09:39:45;;;;;;;3.78;1.40;;;6.00;99.90;;;;;;5035708;28;20033;-85
2022/01/14 09:42:14;;;;;;;0.98;0.82;;;6.00;99.90;;;;;;5034062;28;20084;-84
2022/01/14 09:44:43;;;;;;;0.45;0.45;;;6.10;99.90;;;;;;5032429;28;20132;-85
2022/01/14 09:47:10;;;;;;;2.40;1.35;;;6.10;99.90;;;;;;5000161;28;20034;-85
2022/01/14 09:49:37;;;;;;;0.30;0.30;;;6.10;99.90;;;;;;5028508;28;20085;-84
2022/01/14 09:52:03;;;;;;;0.52;0.52;;;6.10;99.90;;;;;;5014006;28;20048;-86
2022/01/14 09:54:29;;;;;;;2.47;1.02;;;6.20;99.90;;;;;;5016957;28;20053;-85
2022/01/14 09:56:54;;;;;;;3.50;1.92;;;6.20;99.90;;;;;;5015514;28;20041;-84
2022/01/14 09:59:20;;;;;;;0.57;0.57;;;6.20;99.90;;;;;;5004599;28;20049;-84
2022/01/14 10:01:47;;;;;;;1.35;1.10;;;6.20;99.90;;;;;;5016544;28;20049;-84
2022/01/14 10:04:21;;;;;;;0.70;0.57;;;6.30;99.90;;;;;;5017082;28;20034;-84
2022/01/14 10:07:01;;;;;;;1.33;1.23;;;6.30;99.90;;;;;;5032638;28;20116;-84
2022/01/14 10:09:32;;;;;;;5.78;1.60;;;6.30;99.90;;;;;;5024566;28;20125;-84
2022/01/14 10:12:05;;;;;;;3.97;2.00;;;6.40;99.90;;;;;;5028387;28;20046;-84
2022/01/14 10:15:00;;;;;;;9.77;1.95;;;6.40;99.90;;;;;;5022315;28;20545;-84
2022/01/14 10:17:41;;;;;;;1.90;1.20;;;6.40;99.90;;;;;;5031229;28;20037;-84
2022/01/14 10:20:09;;;;;;;10.35;2.25;;;6.50;99.90;;;;;;5016376;28;20068;-84
2022/01/14 10:22:40;;;;;;;7.68;4.68;;;6.50;99.90;;;;;;5016868;28;20094;-84
2022/01/14 10:25:15;;;;;;;1.88;1.05;;;6.50;99.90;;;;;;5033164;28;20392;-85
2022/01/14 10:27:55;;;;;;;7.85;1.98;;;6.50;99.90;;;;;;5032372;28;20041;-84
2022/01/14 10:30:31;;;;;;;5.55;1.50;;;6.50;99.90;;;;;;5016242;28;20484;-84
2022/01/14 10:33:04;;;;;;;1.52;1.42;;;6.50;99.90;;;;;;5033301;28;20044;-83
2022/01/14 10:35:42;;;;;;;1.45;1.13;;;6.60;99.90;;;;;;5030414;28;20045;-83
2022/01/14 10:38:11;;;;;;;2.13;1.13;;;6.60;99.90;;;;;;5015679;28;20037;-85
2022/01/14 10:40:42;;;;;;;5.30;2.58;;;6.60;99.90;;;;;;5024868;28;20095;-83
2022/01/14 10:43:10;;;;;;;1.42;1.25;;;6.60;99.90;;;;;;5001399;28;20125;-84
2022/01/14 10:45:36;;;;;;;5.63;2.13;;;6.60;99.90;;;;;;5031647;28;20046;-84
2022/01/14 10:48:03;;;;;;;1.15;1.05;;;6.60;99.90;;;;;;5011055;28;20049;-84
2022/01/14 10:50:45;;;;;;;1.17;0.80;;;6.60;99.90;;;;;;5032367;28;20037;-84
2022/01/14 10:53:51;;;;;;;2.92;1.05;;;6.70;99.90;;;;;;5031685;28;20043;-84
2022/01/14 10:56:19;;;;;;;0.88;0.85;;;6.70;99.90;;;;;;4997868;28;20065;-84
2022/01/14 10:58:47;;;;;;;5.95;2.67;;;6.70;99.90;;;;;;5011279;28;20056;-85
2022/01/14 11:01:17;;;;;;;1.95;1.30;;;6.80;99.90;;;;;;5022760;28;20034;-85
2022/01/14 11:03:45;;;;;;;1.98;1.27;;;6.70;99.90;;;;;;5031652;28;20091;-84
2022/01/14 11:06:31;;;;;;;3.95;0.85;;;6.80;99.90;;;;;;5022756;28;20092;-84
2022/01/14 11:09:18;;;;;;;5.47;2.10;;;6.80;99.90;;;;;;5011081;28;20038;-84
2022/01/14 11:11:46;;;;;;;1.25;0.95;;;6.80;99.90;;;;;;5008809;28;20041;-84
2022/01/14 11:14:14;;;;;;;3.20;1.30;;;6.80;99.90;;;;;;5015273;28;20060;-84
2022/01/14 11:16:40;;;;;;;3.50;1.75;;;6.80;99.90;;;;;;5024438;28;20557;-84
2022/01/14 11:19:08;;;;;;;3.65;2.10;;;6.80;99.90;;;;;;5007978;28;20069;-85
2022/01/14 11:24:23;;;;;;;;;;;6.90;99.90;;;;;;5031268;28;20273;-84
2022/01/14 11:26:50;;;;;;;3.50;2.58;;;6.80;99.90;;;;;;5031407;28;19917;-84
2022/01/14 11:29:17;;;;;;;2.00;1.50;;;6.80;99.90;;;;;;5015027;28;20029;-84
2022/01/14 11:31:43;;;;;;;1.60;0.95;;;6.90;99.90;;;;;;5013069;28;20055;-84
2022/01/14 11:34:36;;;;;;;2.42;0.90;;;6.90;99.90;;;;;;5010529;28;20388;-84
2022/01/14 11:37:14;;;;;;;4.13;1.15;;;6.90;99.90;;;;;;5008241;28;20419;-86
2022/01/14 11:39:54;;;;;;;5.07;2.22;;;6.90;99.90;;;;;;5031327;28;20044;-84
2022/01/14 11:42:19;;;;;;;5.13;1.42;;;6.90;99.90;;;;;;5031992;28;20034;-85
2022/01/14 11:48:28;;;;;;;1.75;1.02;;;6.80;99.90;;;;;;5047212;28;20072;-85
2022/01/14 11:51:00;;;;;;;2.35;1.45;;;6.80;99.90;;;;;;5027851;28;20034;-84
2022/01/14 11:53:48;;;;;;;3.63;0.95;;;6.80;99.90;;;;;;5013369;28;20137;-85
2022/01/14 11:56:32;;;;;;;4.53;1.95;;;6.80;99.90;;;;;;4995086;28;20044;-85
2022/01/14 11:59:22;;;;;;;1.55;1.05;;;6.80;99.90;;;;;;5003835;28;20038;-84
2022/01/14 12:01:51;;;;;;;1.60;0.88;;;6.90;99.90;;;;;;5031158;28;20620;-85
2022/01/14 12:04:17;;;;;;;1.08;0.90;;;6.90;99.90;;;;;;5030412;28;20041;-84
2022/01/14 12:07:01;;;;;;;1.30;0.73;;;6.90;99.90;;;;;;5014691;28;20037;-85
2022/01/14 12:09:33;;;;;;;1.42;0.80;;;6.80;99.90;;;;;;5031294;28;20091;-85
2022/01/14 12:12:24;;;;;;;0.43;0.43;;;6.80;99.90;;;;;;5031183;28;20033;-84
2022/01/14 12:15:01;;;;;;;3.00;1.20;;;6.80;99.90;;;;;;5014664;28;20083;-85
2022/01/14 12:17:41;;;;;;;1.05;0.90;;;6.90;99.90;;;;;;5014613;28;20152;-84
2022/01/14 12:20:15;;;;;;;0.40;0.40;;;6.80;99.90;;;;;;5007281;28;20038;-85
2022/01/14 12:23:01;;;;;;;0.95;0.77;;;6.80;99.90;;;;;;5002389;28;20103;-85
2022/01/14 12:25:43;;;;;;;0.50;0.50;;;6.80;99.90;;;;;;5014536;28;20045;-85
2022/01/14 12:28:20;;;;;;;0.73;0.73;;;6.90;99.90;;;;;;5031624;28;20132;-85
2022/01/14 12:31:01;;;;;;;0.40;0.40;;;6.90;99.90;;;;;;5031680;28;20041;-84
2022/01/14 12:33:49;;;;;;;3.22;1.27;;;6.90;99.90;;;;;;5014514;28;20038;-85
2022/01/14 12:36:21;;;;;;;1.10;0.77;;;6.90;99.90;;;;;;5014421;28;20052;-84
2022/01/14 12:38:48;;;;;;;0.65;0.57;;;6.90;99.90;;;;;;5030957;28;20041;-85
2022/01/14 12:41:26;;;;;;;7.40;1.20;;;6.90;99.90;;;;;;5030773;28;20092;-85
2022/01/14 12:43:58;;;;;;;6.13;0.60;;;6.90;99.90;;;;;;5014584;28;20100;-84
2022/01/14 12:46:36;;;;;;;1.88;1.77;;;6.90;99.90;;;;;;5030428;28;20476;-84
2022/01/14 12:49:07;;;;;;;4.38;1.63;;;6.90;99.90;;;;;;5009754;28;20030;-85
2022/01/14 12:51:34;;;;;;;0.85;0.75;;;6.90;99.90;;;;;;5029013;28;20052;-84
2022/01/14 12:54:05;;;;;;;2.25;1.38;;;6.90;99.90;;;;;;5014280;28;20041;-86
2022/01/14 12:56:33;;;;;;;5.75;1.17;;;6.90;99.90;;;;;;5030480;28;20391;-84
2022/01/14 12:59:10;;;;;;;1.42;0.88;;;6.90;99.90;;;;;;5002115;28;20045;-85
2022/01/14 13:01:40;;;;;;;0.60;0.60;;;6.90;99.90;;;;;;4994633;28;20049;-84
2022/01/14 13:04:12;;;;;;;4.70;1.20;;;6.90;99.90;;;;;;4994287;28;20034;-85
2022/01/14 13:07:07;;;;;;;2.92;0.95;;;6.80;99.90;;;;;;5003418;28;20038;-85
2022/01/14 13:09:35;;;;;;;0.45;0.43;;;6.80;99.90;;;;;;5013995;28;20087;-85
2022/01/14 13:12:03;;;;;;;1.20;0.68;;;6.80;99.90;;;;;;5013740;28;20388;-85
2022/01/14 13:14:41;;;;;;;1.23;0.45;;;6.80;99.90;;;;;;5014877;28;20406;-85
2022/01/14 13:17:12;;;;;;;11.60;0.88;;;6.80;99.90;;;;;;5017349;28;20085;-85
2022/01/14 13:19:39;;;;;;;0.60;0.60;;;6.90;99.90;;;;;;5003112;28;20411;-85
2022/01/14 13:22:12;;;;;;;0.40;0.40;;;6.90;99.90;;;;;;5017921;28;20509;-85
2022/01/14 13:24:39;;;;;;;1.13;0.70;;;6.80;99.90;;;;;;5018021;28;20068;-86
2022/01/14 13:27:29;;;;;;;1.75;1.30;;;6.80;99.90;;;;;;5017322;28;20033;-85
2022/01/14 13:29:59;;;;;;;5.10;1.50;;;6.80;99.90;;;;;;5033945;28;20076;-84
2022/01/14 13:32:36;;;;;;;0.50;0.50;;;6.80;99.90;;;;;;5033978;28;20083;-84